Data for 11/27/2014

Time Sea-Level Adjusted Pressure Absolute Pressure Temperature Relative Humidity Dew Point   
(mb) (inHg) (mb) (inHg) (C) (F) (%) (C) (F)
00:05 1020 30.12 849 25.07 4.4 39.8 66 -1.4 29.5
00:10 1019 30.09 849 25.07 3.7 38.6 69 -1.4 29.5
00:15 1019 30.09 848 25.04 3.4 38.1 69 -1.7 28.9
00:20 1019 30.09 848 25.04 3.5 38.3 67 -2 28.4
00:25 1019 30.09 849 25.07 3.8 38.8 68 -1.5 29.3
00:30 1020 30.12 849 25.07 3.5 38.3 67 -2 28.3
00:35 1020 30.12 849 25.07 3.7 38.7 65 -2.2 28
00:40 1020 30.12 849 25.07 4.3 39.7 60 -2.7 27.1
00:45 1020 30.12 849 25.07 4.9 40.9 57 -2.9 26.8
00:50 1020 30.12 849 25.07 5.4 41.6 56 -2.8 27
00:55 1020 30.12 849 25.07 5.5 41.8 55 -2.9 26.9
01:00 1020 30.12 849 25.07 5.6 42.1 54 -3 26.5
01:05 1020 30.12 849 25.07 5.5 41.9 65 -0.6 31
01:10 1020 30.12 849 25.07 3.4 38.1 71 -1.3 29.6
01:15 1020 30.12 849 25.07 2.8 37 75 -1.3 29.7
01:20 1020 30.12 849 25.07 2.5 36.4 72 -2.2 28.1
01:25 1019 30.09 849 25.07 2.9 37.3 71 -1.9 28.6
01:30 1019 30.09 849 25.07 3.2 37.8 70 -1.7 29
01:35 1019 30.09 849 25.07 3.8 38.9 62 -2.7 27.1
01:40 1019 30.09 849 25.07 4.8 40.6 62 -1.8 28.7
01:45 1019 30.09 849 25.07 4.5 40.1 64 -1.8 28.8
01:50 1019 30.09 849 25.07 4.2 39.6 64 -1.9 28.6
01:55 1019 30.09 848 25.04 3.8 38.8 69 -1.3 29.6
02:00 1019 30.09 848 25.04 3 37.3 71 -1.7 28.9
02:05 1019 30.09 848 25.04 2.9 37.2 73 -1.5 29.2
02:10 1019 30.09 848 25.04 2.5 36.5 76 -1.4 29.5
02:15 1019 30.09 848 25.04 2.3 36.1 74 -1.8 28.7
02:20 1019 30.09 848 25.04 2.7 36.8 74 -1.5 29.3
02:25 1019 30.09 848 25.04 2.6 36.8 73 -1.6 29
02:30 1019 30.09 848 25.04 3 37.3 68 -2.4 27.6
02:35 1019 30.09 848 25.04 3.8 38.9 65 -2.1 28.3
02:40 1019 30.09 848 25.04 4.1 39.3 65 -1.8 28.7
02:45 1019 30.09 848 25.04 3.9 39.1 65 -2.1 28.2
02:50 1019 30.09 848 25.04 4.4 39.9 60 -2.7 27.1
02:55 1019 30.09 848 25.04 4.4 39.9 64 -1.8 28.8
03:00 1019 30.09 848 25.04 4.1 39.3 61 -2.9 26.9
03:05 1019 30.09 848 25.04 4.9 40.8 57 -2.9 26.8
03:10 1019 30.09 848 25.04 5.5 41.9 54 -3.1 26.4
03:15 1019 30.09 848 25.04 5.6 42.1 55 -2.7 27.2
03:20 1019 30.09 848 25.04 5.5 42 55 -2.8 26.9
03:25 1019 30.09 848 25.04 5.2 41.4 60 -2 28.5
03:30 1019 30.09 848 25.04 4.3 39.7 66 -1.5 29.4
03:35 1019 30.09 848 25.04 4 39.1 63 -2.5 27.6
03:40 1019 30.09 848 25.04 4.9 40.8 52 -4.2 24.4
03:45 1019 30.09 848 25.04 6 42.7 52 -3.1 26.4
03:50 1019 30.09 848 25.04 6 42.8 51 -3.4 25.9
03:55 1019 30.09 848 25.04 6.2 43.1 49 -3.6 25.5
04:00 1019 30.09 848 25.04 6.4 43.5 47 -4 24.8
04:05 1019 30.09 848 25.04 6.7 44 46 -4 24.7
04:10 1019 30.09 848 25.04 6.8 44.2 49 -3.2 26.2
04:15 1019 30.09 848 25.04 6.6 43.9 46 -4.3 24.3
04:20 1019 30.09 848 25.04 7.3 45.2 43 -4.4 24.1
04:25 1019 30.09 848 25.04 7.1 44.8 46 -3.6 25.5
04:30 1019 30.09 848 25.04 6.7 44.1 44 -4.6 23.6
04:35 1019 30.09 848 25.04 7 44.6 40 -5.6 21.8
04:40 1019 30.09 848 25.04 7.5 45.5 41 -4.9 23.2
04:45 1019 30.09 848 25.04 7.4 45.4 42 -4.6 23.7
04:50 1019 30.09 848 25.04 7.3 45.1 40 -5.3 22.4
04:55 1019 30.09 848 25.04 7.4 45.3 43 -4.2 24.4
05:00 1019 30.09 848 25.04 7.2 44.9 43 -4.7 23.6
05:05 1019 30.09 848 25.04 7.2 44.9 45 -3.9 25
05:10 1019 30.09 848 25.04 7 44.6 45 -4 24.7
05:15 1019 30.09 848 25.04 6.8 44.3 46 -4 24.8
05:20 1019 30.09 848 25.04 6.6 44 45 -4.3 24.3
05:25 1019 30.09 848 25.04 6.8 44.2 43 -5.1 22.8
05:30 1019 30.09 848 25.04 7 44.6 42 -5 22.9
05:35 1019 30.09 848 25.04 7.2 44.9 41 -5.1 22.9
05:40 1019 30.09 848 25.04 7.2 45 43 -4.6 23.6
05:45 1018 30.06 848 25.04 7.1 44.8 43 -4.5 23.8
05:50 1018 30.06 848 25.04 7.1 44.7 43 -4.7 23.5
05:55 1018 30.06 848 25.04 7.1 44.8 45 -4 24.8
06:00 1018 30.06 847 25.01 6.4 43.6 49 -3.4 25.8
06:05 1018 30.06 847 25.01 6 42.8 51 -3.4 25.9
06:10 1018 30.06 847 25.01 5.9 42.5 51 -3.4 25.8
06:15 1018 30.06 847 25.01 6.3 43.3 49 -3.7 25.4
06:20 1018 30.06 847 25.01 6.6 44 45 -4.3 24.3
06:25 1018 30.06 847 25.01 7.1 44.7 41 -5.4 22.3
06:30 1018 30.06 847 25.01 7.7 45.8 39 -5.5 22.1
06:35 1018 30.06 847 25.01 8 46.5 37 -5.7 21.8
06:40 1018 30.06 847 25.01 8.2 46.7 37 -5.8 21.6
06:45 1018 30.06 847 25.01 8.2 46.8 37 -5.6 22
06:50 1018 30.06 847 25.01 8.2 46.8 39 -5 22.9
06:55 1018 30.06 847 25.01 8.2 46.8 40 -4.6 23.7
07:00 1018 30.06 847 25.01 8.1 46.6 39 -5 23
07:05 1018 30.06 847 25.01 7.5 45.4 45 -3.5 25.6
07:10 1018 30.06 847 25.01 6.7 44 44 -4.7 23.5
07:15 1018 30.06 847 25.01 7.1 44.8 41 -5.1 22.7
07:20 1017 30.03 847 25.01 7.4 45.4 44 -4.1 24.7
07:25 1017 30.03 847 25.01 7.3 45.1 45 -4 24.9
07:30 1017 30.03 847 25.01 7.5 45.4 42 -4.5 23.9
07:35 1017 30.03 847 25.01 7.8 46 40 -4.9 23.2
07:40 1018 30.06 847 25.01 8.1 46.5 37 -5.8 21.5
07:45 1017 30.03 847 25.01 8.9 48 36 -5.4 22.4
07:50 1017 30.03 847 25.01 8.9 47.9 38 -4.6 23.8
07:55 1017 30.03 847 25.01 8.7 47.7 36 -5.4 22.3
08:00 1017 30.03 846 24.98 9.2 48.6 35 -5.6 21.9
08:05 1017 30.03 847 25.01 9.5 49 35 -5.3 22.5
08:10 1017 30.03 847 25.01 9.3 48.7 37 -4.7 23.6
08:15 1017 30.03 847 25.01 8.9 48.1 37 -4.8 23.3
08:20 1017 30.03 847 25.01 9.2 48.6 36 -5 23
08:25 1017 30.03 847 25.01 9.4 48.9 37 -4.6 23.7
08:30 1017 30.03 846 24.98 9.4 49 37 -4.4 24
08:35 1017 30.03 846 24.98 9.3 48.8 38 -4.3 24.3
08:40 1017 30.03 847 25.01 9.3 48.8 38 -4.4 24.1
08:45 1017 30.03 847 25.01 9.4 48.9 38 -4.1 24.6
08:50 1017 30.03 847 25.01 9.3 48.7 38 -4.2 24.4
08:55 1017 30.03 847 25.01 9.4 48.9 39 -4 24.9
09:00 1017 30.03 847 25.01 9.2 48.5 39 -4.2 24.5
09:05 1018 30.06 847 25.01 9.2 48.6 40 -3.7 25.4
09:10 1018 30.06 847 25.01 9 48.2 39 -4.1 24.6
09:15 1018 30.06 847 25.01 9.3 48.8 38 -4.2 24.4
09:20 1018 30.06 847 25.01 9.4 49 39 -3.8 25.2
09:25 1018 30.06 847 25.01 9.2 48.6 40 -3.7 25.4
09:30 1018 30.06 847 25.01 9 48.1 42 -3.3 26.1
09:35 1018 30.06 847 25.01 8.7 47.7 42 -3.5 25.7
09:40 1018 30.06 847 25.01 8.6 47.4 42 -3.5 25.7
09:45 1018 30.06 847 25.01 8.7 47.7 41 -3.7 25.4
09:50 1018 30.06 847 25.01 8.9 48 41 -3.7 25.4
09:55 1018 30.06 847 25.01 8.9 48.1 41 -3.7 25.3
10:00 1018 30.06 847 25.01 9.4 48.8 38 -4.3 24.2
10:05 1018 30.06 847 25.01 9.5 49.1 38 -4 24.8
10:10 1018 30.06 847 25.01 9.4 49 38 -4.2 24.4
10:15 1018 30.06 847 25.01 9.4 48.9 39 -3.9 25.1
10:20 1018 30.06 847 25.01 9.2 48.6 38 -4.2 24.5
10:25 1018 30.06 847 25.01 9.4 48.9 39 -3.8 25.1
10:30 1018 30.06 847 25.01 9.3 48.7 38 -4.2 24.5
10:35 1018 30.06 847 25.01 9.3 48.8 39 -3.8 25.1
10:40 1018 30.06 847 25.01 9.2 48.5 40 -3.6 25.6
10:45 1018 30.06 847 25.01 9.2 48.5 39 -3.9 25
10:50 1018 30.06 847 25.01 9.2 48.6 40 -3.8 25.2
10:55 1018 30.06 847 25.01 9.2 48.5 40 -3.7 25.3
11:00 1018 30.06 847 25.01 9.3 48.8 38 -4.1 24.6
11:05 1018 30.06 847 25.01 9.6 49.2 39 -3.7 25.3
11:10 1018 30.06 847 25.01 9.5 49.1 39 -3.8 25.2
11:15 1018 30.06 847 25.01 9.5 49 40 -3.5 25.7
11:20 1018 30.06 847 25.01 9.4 48.8 40 -3.7 25.4
11:25 1018 30.06 847 25.01 9.4 48.9 39 -3.7 25.4
11:30 1018 30.06 847 25.01 9.2 48.6 40 -3.5 25.6
11:35 1018 30.06 847 25.01 9.2 48.5 40 -3.6 25.6
11:40 1018 30.06 847 25.01 9.2 48.6 40 -3.6 25.5
11:45 1018 30.06 847 25.01 9.2 48.6 41 -3.4 25.9
11:50 1018 30.06 847 25.01 9.4 48.8 40 -3.7 25.4
11:55 1018 30.06 847 25.01 9.6 49.3 39 -3.5 25.6
12:00 1018 30.06 848 25.04 9.5 49.1 40 -3.3 26
12:05 1018 30.06 848 25.04 9.5 49 41 -3.2 26.2
12:10 1018 30.06 848 25.04 9.6 49.2 40 -3.2 26.2
12:15 1018 30.06 847 25.01 9.6 49.3 40 -3.2 26.2
12:20 1018 30.06 847 25.01 9.7 49.5 40 -3.3 26.1
12:25 1018 30.06 847 25.01 9.8 49.6 40 -3.2 26.2
12:30 1018 30.06 847 25.01 9.7 49.5 40 -3.4 26
12:35 1018 30.06 847 25.01 9.8 49.6 40 -3.2 26.3
12:40 1018 30.06 847 25.01 9.7 49.4 40 -3.3 26.1
12:45 1018 30.06 847 25.01 10 49.9 38 -3.6 25.5
12:50 1018 30.06 847 25.01 10.2 50.3 38 -3.4 25.8
12:55 1018 30.06 847 25.01 10.4 50.6 37 -3.6 25.6
13:00 1017 30.03 847 25.01 10.4 50.8 39 -3 26.6
13:05 1017 30.03 847 25.01 10.2 50.4 40 -2.8 26.9
13:10 1017 30.03 846 24.98 10.3 50.5 39 -3.1 26.4
13:15 1017 30.03 846 24.98 10.3 50.5 38 -3.3 26.1
13:20 1017 30.03 846 24.98 10.4 50.7 38 -3.3 26
13:25 1017 30.03 846 24.98 10.5 50.8 38 -3.2 26.2
13:30 1017 30.03 846 24.98 10.5 50.8 38 -3.2 26.3
13:35 1017 30.03 846 24.98 10.4 50.7 38 -3.2 26.2
13:40 1017 30.03 846 24.98 10.5 50.8 38 -3.2 26.2
13:45 1017 30.03 846 24.98 10.7 51.2 38 -3.2 26.2
13:50 1017 30.03 846 24.98 10.9 51.5 36 -3.6 25.6
13:55 1017 30.03 846 24.98 11.2 52.1 35 -3.6 25.6
14:00 1017 30.03 846 24.98 11.5 52.7 35 -3.5 25.8
14:05 1017 30.03 846 24.98 12 53.6 33 -3.7 25.3
14:10 1017 30.03 846 24.98 12.4 54.3 34 -3.1 26.3
14:15 1016 30 846 24.98 12.7 54.8 32 -3.7 25.3
14:20 1016 30 846 24.98 13.3 55.9 31 -3.3 26.1
14:25 1016 30 846 24.98 13.6 56.4 31 -3.1 26.4
14:30 1016 30 846 24.98 13.6 56.5 32 -2.8 27
14:35 1016 30 845 24.95 12.8 55.1 34 -2.5 27.5
14:40 1016 30 845 24.95 12.2 53.9 35 -2.9 26.7
14:45 1016 30 845 24.95 12 53.6 35 -2.8 26.9
14:50 1016 30 845 24.95 12.2 53.9 33 -3.7 25.4
14:55 1016 30 845 24.95 12.4 54.3 32 -3.7 25.3
15:00 1016 30 845 24.95 12.5 54.4 33 -3.3 26.1
15:05 1016 30 845 24.95 12.3 54.1 33 -3.3 26
15:10 1016 30 845 24.95 12.1 53.7 34 -3.2 26.2
15:15 1016 30 845 24.95 12.2 53.9 34 -3.2 26.3
15:20 1016 30 845 24.95 12.2 53.9 34 -3.3 26.1
15:25 1016 30 845 24.95 12.4 54.4 34 -3.1 26.4
15:30 1016 30 845 24.95 12.6 54.7 33 -3.1 26.4
15:35 1016 30 845 24.95 12.6 54.7 33 -3.1 26.4
15:40 1016 30 845 24.95 12.5 54.5 34 -2.9 26.7
15:45 1016 30 845 24.95 12.5 54.4 33 -3.4 25.9
15:50 1016 30 845 24.95 12.9 55.1 32 -3.3 26.1
15:55 1016 30 845 24.95 13.1 55.5 32 -3.1 26.3
16:00 1016 30 845 24.95 13 55.4 32 -3.2 26.3
16:05 1016 30 845 24.95 12.9 55.1 33 -2.9 26.8
16:10 1016 30 845 24.95 12.8 55 34 -2.8 27
16:15 1016 30 845 24.95 12.4 54.2 34 -3.1 26.4
16:20 1016 30 845 24.95 12.1 53.8 34 -3.2 26.2
16:25 1016 30 845 24.95 12 53.6 34 -3.5 25.7
16:30 1016 30 845 24.95 11.9 53.5 34 -3.5 25.7
16:35 1016 30 845 24.95 11.9 53.4 33 -3.9 24.9
16:40 1016 30 845 24.95 12.1 53.9 34 -3.4 25.9
16:45 1016 30 845 24.95 12.1 53.7 33 -3.6 25.5
16:50 1016 30 845 24.95 12.1 53.7 34 -3.4 25.9
16:55 1016 30 845 24.95 11.9 53.5 34 -3.3 26.1
17:00 1016 30 845 24.95 11.8 53.3 34 -3.7 25.4
17:05 1015 29.97 845 24.95 12 53.7 34 -3.3 26
17:10 1015 29.97 845 24.95 11.6 52.9 33 -3.9 25
17:15 1015 29.97 844 24.92 11.7 53 33 -4 24.9
17:20 1015 29.97 844 24.92 11.6 52.8 33 -4.1 24.6
17:25 1015 29.97 844 24.92 11.7 53 32 -4.4 24.1
17:30 1015 29.97 844 24.92 11.6 52.8 33 -4 24.7
17:35 1015 29.97 844 24.92 11.3 52.3 34 -3.8 25.2
17:40 1015 29.97 844 24.92 10.9 51.7 34 -4.2 24.5
17:45 1015 29.97 844 24.92 11 51.8 36 -3.6 25.6
17:50 1015 29.97 844 24.92 10.7 51.3 35 -4.1 24.6
17:55 1015 29.97 844 24.92 10.8 51.4 36 -3.6 25.5
18:00 1015 29.97 844 24.92 10.6 51.2 36 -3.8 25.2
18:05 1015 29.97 844 24.92 10.4 50.7 39 -2.8 27
18:10 1015 29.97 844 24.92 9.9 49.8 40 -3 26.5
18:15 1015 29.97 844 24.92 9.8 49.7 40 -3.2 26.3
18:20 1015 29.97 844 24.92 10 49.9 39 -3.3 26
18:25 1015 29.97 844 24.92 10 50 40 -3 26.6
18:30 1015 29.97 844 24.92 9.9 49.9 39 -3.4 25.9
18:35 1015 29.97 844 24.92 10.1 50.2 37 -3.8 25.2
18:40 1015 29.97 844 24.92 10.5 50.9 37 -3.6 25.5
18:45 1015 29.97 844 24.92 10.2 50.4 41 -2.4 27.7
18:50 1015 29.97 844 24.92 9.5 49.2 41 -3.1 26.3
18:55 1015 29.97 844 24.92 10.1 50.1 40 -2.9 26.7
19:00 1015 29.97 844 24.92 10.1 50.3 40 -2.9 26.8
19:05 1015 29.97 844 24.92 10.4 50.7 38 -3.2 26.2
19:10 1015 29.97 844 24.92 10.6 51.1 39 -2.6 27.4
19:15 1015 29.97 844 24.92 10 49.9 41 -2.5 27.4
19:20 1015 29.97 844 24.92 9.7 49.5 41 -2.9 26.8
19:25 1015 29.97 844 24.92 10 49.9 40 -3 26.6
19:30 1015 29.97 844 24.92 10 49.9 41 -2.6 27.3
19:35 1015 29.97 844 24.92 9.9 49.9 41 -2.8 27
19:40 1015 29.97 844 24.92 9.9 49.8 40 -2.9 26.8
19:45 1015 29.97 844 24.92 10.3 50.5 38 -3.3 26
19:50 1015 29.97 844 24.92 10.8 51.4 38 -2.9 26.7
19:55 1014 29.94 844 24.92 10.4 50.6 40 -2.7 27.1
20:00 1014 29.94 843 24.89 10.2 50.3 39 -3.3 26.1
20:05 1014 29.94 843 24.89 10.9 51.6 38 -2.9 26.7
20:10 1014 29.94 844 24.92 10.2 50.4 42 -2 28.4
20:15 1014 29.94 844 24.92 9.6 49.2 44 -2.2 28.1
20:20 1015 29.97 844 24.92 9.8 49.6 41 -2.8 27
20:25 1015 29.97 844 24.92 10.2 50.3 41 -2.6 27.3
20:30 1015 29.97 844 24.92 10.5 51 39 -2.9 26.7
20:35 1015 29.97 844 24.92 10.5 51 41 -2.2 28.1
20:40 1014 29.94 844 24.92 10.2 50.3 41 -2.4 27.7
20:45 1014 29.94 844 24.92 9.8 49.6 43 -2.1 28.2
20:50 1014 29.94 843 24.89 9.5 49.1 44 -2.2 28.1
20:55 1014 29.94 843 24.89 9.7 49.5 43 -2.1 28.2
21:00 1014 29.94 843 24.89 10.1 50.3 43 -1.7 28.9
21:05 1014 29.94 843 24.89 10.7 51.2 42 -1.6 29.1
21:10 1014 29.94 843 24.89 10.8 51.5 42 -1.5 29.3
21:15 1014 29.94 843 24.89 10.7 51.2 43 -1.3 29.7
21:20 1014 29.94 843 24.89 10.4 50.7 44 -1.2 29.8
21:25 1014 29.94 843 24.89 10.4 50.6 44 -1.2 29.8
21:30 1014 29.94 843 24.89 10.4 50.6 45 -1 30.2
21:35 1014 29.94 843 24.89 9.1 48.3 54 0.3 32.6
21:40 1014 29.94 843 24.89 7.9 46.2 57 -0.1 31.9
21:45 1014 29.94 843 24.89 7.7 45.8 57 -0.2 31.6
21:50 1014 29.94 843 24.89 7.8 46 58 -0 32
21:55 1014 29.94 843 24.89 7.7 45.8 59 0.1 32.1
22:00 1013 29.91 843 24.89 7.6 45.6 61 0.7 33.2
22:05 1013 29.91 843 24.89 7.5 45.5 60 0.3 32.5
22:10 1013 29.91 843 24.89 7.4 45.3 60 0.1 32.2
22:15 1014 29.94 843 24.89 7.5 45.5 58 -0.1 31.8
22:20 1014 29.94 843 24.89 7.6 45.8 59 0.1 32.2
22:25 1014 29.94 843 24.89 7.6 45.6 58 -0 31.9
22:30 1014 29.94 843 24.89 8.1 46.5 56 -0.1 31.8
22:35 1014 29.94 843 24.89 8.3 46.9 56 0.1 32.2
22:40 1014 29.94 843 24.89 8.1 46.7 57 0.1 32.2
22:45 1014 29.94 843 24.89 8.1 46.6 57 0.2 32.3
22:50 1014 29.94 843 24.89 8 46.4 57 0.1 32.2
22:55 1014 29.94 843 24.89 8 46.3 57 0.1 32.1
23:00 1014 29.94 843 24.89 8.1 46.5 56 -0.1 31.7
23:05 1014 29.94 843 24.89 8.4 47.2 55 0 32.1
23:10 1014 29.94 843 24.89 8.3 47 56 0.1 32.3
23:15 1014 29.94 843 24.89 8 46.4 58 0.3 32.6
23:20 1014 29.94 843 24.89 7.5 45.5 58 -0.1 31.8
23:25 1014 29.94 843 24.89 7.7 45.9 59 0.3 32.5
23:30 1014 29.94 843 24.89 7.5 45.6 60 0.2 32.4
23:35 1014 29.94 843 24.89 7.1 44.8 61 0.1 32.2
23:40 1014 29.94 843 24.89 7.1 44.7 61 -0 32
23:45 1014 29.94 843 24.89 7 44.6 61 -0 32
23:50 1014 29.94 843 24.89 7.1 44.8 59 -0.3 31.4
23:55 1014 29.94 843 24.89 7.6 45.7 56 -0.7 30.8
24:00 1014 29.94 843 24.89 7.9 46.3 55 -0.6 30.9